KLM787D EHAM-TNCC
Flight info
| Callsign | KLM787D |
|---|---|
| Flight time | N/A |
| Altitude | 34000 |
| Route | BERGI L602 NALAX L46 GETNO DCT MOLAK DCT KOKIB DCT VENER/M085F340 DCT 5430N02000W 5330N03000W 51N040W 44N050W/M085F360 35N060W/M085F380 DCT LAZEY DCT GECAL DCT VINSO DCT LUCTI/N0490F380 DCT JSTIN/N0487F390 L453 ASIVO/N0491F380 DCT KARUM KARUM1B |
| Aircraft | B78X/H-SDE1E2E3FGHIJ2J3J4J5M1RWXY/LB1D1 |
Departure
| Time | 2026-05-06 09:48 |
|---|---|
| Airport | Amsterdam Airport Schiphol (EHAM) |
Arrival
| Time | N/A |
|---|---|
| Airport | Hato International Airport (TNCC) |
| Time | Latitude | Longitude | Altitude | Speed | Heading |
|---|---|---|---|---|---|
| 2026-05-06 08:58 | 52.31372 | 4.76053 | 3 ft | 0 kts | 146° |
| 2026-05-06 09:31 | 52.31368 | 4.76056 | 3 ft | 2 kts | 153° |
| 2026-05-06 09:31 | 52.31344 | 4.76031 | 3 ft | 6 kts | 236° |
| 2026-05-06 09:31 | 52.31345 | 4.76005 | 3 ft | 1 kts | 283° |
| 2026-05-06 09:32 | 52.31345 | 4.76008 | 3 ft | 1 kts | 285° |
| 2026-05-06 09:32 | 52.31345 | 4.76007 | 3 ft | 2 kts | 289° |
| 2026-05-06 09:32 | 52.31385 | 4.75992 | 4 ft | 5 kts | 334° |
| 2026-05-06 09:32 | 52.31402 | 4.75968 | 3 ft | 5 kts | 322° |
| 2026-05-06 09:33 | 52.31467 | 4.75925 | 3 ft | 15 kts | 341° |
| 2026-05-06 09:33 | 52.31518 | 4.75823 | 3 ft | 10 kts | 279° |
| 2026-05-06 09:33 | 52.31520 | 4.75717 | 3 ft | 10 kts | 271° |
| 2026-05-06 09:33 | 52.31519 | 4.75630 | 3 ft | 3 kts | 265° |
| 2026-05-06 09:34 | 52.31519 | 4.75624 | 3 ft | 0 kts | 265° |
| 2026-05-06 09:38 | 52.31515 | 4.75559 | 3 ft | 12 kts | 265° |
| 2026-05-06 09:38 | 52.31505 | 4.75348 | 3 ft | 25 kts | 266° |
| 2026-05-06 09:38 | 52.31497 | 4.75005 | 3 ft | 35 kts | 269° |
| 2026-05-06 09:39 | 52.31487 | 4.74595 | 3 ft | 36 kts | 266° |
| 2026-05-06 09:39 | 52.31475 | 4.74288 | 3 ft | 12 kts | 267° |
| 2026-05-06 09:39 | 52.31492 | 4.74197 | 3 ft | 9 kts | 312° |
| 2026-05-06 09:39 | 52.31574 | 4.74158 | 4 ft | 16 kts | 4° |
| 2026-05-06 09:40 | 52.31713 | 4.74163 | 5 ft | 25 kts | 1° |
| 2026-05-06 09:40 | 52.31919 | 4.74174 | 0 ft | 28 kts | 2° |
| 2026-05-06 09:40 | 52.32032 | 4.73900 | 3 ft | 23 kts | 264° |
| 2026-05-06 09:41 | 52.32043 | 4.73648 | 7 ft | 24 kts | 276° |
| 2026-05-06 09:41 | 52.32075 | 4.73393 | 7 ft | 21 kts | 296° |
| 2026-05-06 09:41 | 52.32191 | 4.73208 | 5 ft | 28 kts | 322° |
| 2026-05-06 09:41 | 52.32368 | 4.72976 | 2 ft | 37 kts | 319° |
| 2026-05-06 09:42 | 52.32580 | 4.72664 | 2 ft | 45 kts | 318° |
| 2026-05-06 09:42 | 52.32806 | 4.72285 | 5 ft | 48 kts | 311° |
| 2026-05-06 09:42 | 52.33004 | 4.71917 | 3 ft | 37 kts | 311° |
| 2026-05-06 09:42 | 52.33145 | 4.71632 | 4 ft | 22 kts | 288° |
| 2026-05-06 09:43 | 52.33147 | 4.71558 | 4 ft | 0 kts | 260° |
| 2026-05-06 09:45 | 52.33133 | 4.71520 | 4 ft | 7 kts | 232° |
| 2026-05-06 09:45 | 52.33087 | 4.71435 | 5 ft | 13 kts | 229° |
| 2026-05-06 09:45 | 52.33000 | 4.71297 | 2 ft | 22 kts | 222° |
| 2026-05-06 09:45 | 52.32883 | 4.71128 | 2 ft | 16 kts | 230° |
| 2026-05-06 09:46 | 52.32870 | 4.71081 | 2 ft | 0 kts | 252° |
| 2026-05-06 09:46 | 52.32868 | 4.71031 | 1 ft | 14 kts | 269° |
| 2026-05-06 09:46 | 52.32916 | 4.70892 | 2 ft | 15 kts | 350° |
| 2026-05-06 09:47 | 52.32972 | 4.70893 | 0 ft | 0 kts | 3° |
| 2026-05-06 09:47 | 52.33107 | 4.70907 | -2 ft | 52 kts | 4° |
| 2026-05-06 09:47 | 52.33682 | 4.70975 | 7 ft | 112 kts | 5° |
| 2026-05-06 09:47 | 52.34651 | 4.71051 | 28 ft | 161 kts | 4° |
| 2026-05-06 09:48 | 52.35749 | 4.71102 | 683 ft | 154 kts | 4° |
| 2026-05-06 09:48 | 52.36850 | 4.71143 | 1358 ft | 161 kts | 3° |
| 2026-05-06 09:48 | 52.37967 | 4.71102 | 2005 ft | 159 kts | 1° |
| 2026-05-06 09:48 | 52.39070 | 4.71112 | 2570 ft | 157 kts | 10° |
| 2026-05-06 09:49 | 52.40168 | 4.71381 | 3044 ft | 169 kts | 12° |
| 2026-05-06 09:49 | 52.41473 | 4.71673 | 3183 ft | 207 kts | 9° |
| 2026-05-06 09:49 | 52.42997 | 4.71492 | 3606 ft | 240 kts | 337° |
| 2026-05-06 09:49 | 52.44409 | 4.69855 | 4382 ft | 257 kts | 321° |
| 2026-05-06 09:50 | 52.45690 | 4.67755 | 5422 ft | 263 kts | 316° |
| 2026-05-06 09:50 | 52.46951 | 4.65563 | 6509 ft | 265 kts | 317° |
| 2026-05-06 09:50 | 52.48262 | 4.63404 | 7494 ft | 269 kts | 317° |
| 2026-05-06 09:50 | 52.49611 | 4.61229 | 8430 ft | 275 kts | 316° |
| 2026-05-06 09:51 | 52.50981 | 4.58997 | 9394 ft | 280 kts | 316° |
| 2026-05-06 09:51 | 52.52493 | 4.56989 | 10315 ft | 282 kts | 333° |
| 2026-05-06 09:51 | 52.54262 | 4.55437 | 10975 ft | 296 kts | 330° |
| 2026-05-06 09:51 | 52.56088 | 4.53649 | 11531 ft | 314 kts | 329° |
| 2026-05-06 09:52 | 52.58026 | 4.51780 | 12039 ft | 334 kts | 330° |
| 2026-05-06 09:52 | 52.60086 | 4.49863 | 12750 ft | 346 kts | 330° |
| 2026-05-06 09:52 | 52.62203 | 4.47890 | 13613 ft | 354 kts | 329° |
| 2026-05-06 09:52 | 52.64354 | 4.45856 | 14411 ft | 360 kts | 329° |
| 2026-05-06 09:53 | 52.66540 | 4.43784 | 15264 ft | 365 kts | 329° |
| 2026-05-06 09:53 | 52.68760 | 4.41687 | 16106 ft | 370 kts | 329° |
| 2026-05-06 09:53 | 52.70999 | 4.39573 | 16987 ft | 372 kts | 329° |
| 2026-05-06 09:53 | 52.73252 | 4.37409 | 17817 ft | 377 kts | 326° |
| 2026-05-06 09:54 | 52.75199 | 4.34544 | 18583 ft | 378 kts | 307° |
| 2026-05-06 09:54 | 52.76606 | 4.30876 | 19287 ft | 380 kts | 299° |
| 2026-05-06 09:54 | 52.77915 | 4.27040 | 19885 ft | 387 kts | 298° |
| 2026-05-06 09:54 | 52.79212 | 4.23131 | 20588 ft | 389 kts | 297° |
| 2026-05-06 09:55 | 52.80540 | 4.19189 | 21173 ft | 396 kts | 298° |
| 2026-05-06 09:55 | 52.81895 | 4.15212 | 21815 ft | 400 kts | 298° |
| 2026-05-06 09:55 | 52.83264 | 4.11181 | 22424 ft | 405 kts | 298° |
| 2026-05-06 09:55 | 52.84632 | 4.07096 | 23054 ft | 408 kts | 297° |
| 2026-05-06 09:56 | 52.86023 | 4.02972 | 23627 ft | 413 kts | 297° |
| 2026-05-06 09:56 | 52.87422 | 3.98809 | 24167 ft | 415 kts | 296° |
| 2026-05-06 09:56 | 52.88827 | 3.94619 | 24678 ft | 418 kts | 296° |
| 2026-05-06 09:56 | 52.90226 | 3.90443 | 25166 ft | 422 kts | 296° |
| 2026-05-06 09:57 | 52.91675 | 3.86113 | 25645 ft | 426 kts | 296° |
| 2026-05-06 09:57 | 52.93112 | 3.81803 | 26118 ft | 430 kts | 296° |
| 2026-05-06 09:57 | 52.94562 | 3.77451 | 26559 ft | 433 kts | 296° |
| 2026-05-06 09:57 | 52.96026 | 3.73057 | 27007 ft | 437 kts | 296° |
| 2026-05-06 09:58 | 52.97495 | 3.68626 | 27465 ft | 440 kts | 296° |
| 2026-05-06 09:58 | 52.98977 | 3.64154 | 27908 ft | 443 kts | 296° |
| 2026-05-06 09:58 | 53.00466 | 3.59659 | 28337 ft | 447 kts | 296° |
| 2026-05-06 09:58 | 53.01948 | 3.55176 | 28771 ft | 450 kts | 296° |
| 2026-05-06 09:59 | 53.03474 | 3.50547 | 29216 ft | 452 kts | 296° |
| 2026-05-06 09:59 | 53.04983 | 3.45953 | 29659 ft | 455 kts | 295° |
| 2026-05-06 09:59 | 53.06502 | 3.41320 | 30058 ft | 457 kts | 295° |
| 2026-05-06 09:59 | 53.08027 | 3.36666 | 30403 ft | 460 kts | 295° |
| 2026-05-06 10:00 | 53.09525 | 3.31955 | 30753 ft | 460 kts | 290° |
| 2026-05-06 10:00 | 53.10544 | 3.26941 | 31113 ft | 457 kts | 279° |
| 2026-05-06 10:00 | 53.11243 | 3.21777 | 31451 ft | 459 kts | 280° |
| 2026-05-06 10:00 | 53.11928 | 3.16653 | 31764 ft | 461 kts | 281° |
| 2026-05-06 10:01 | 53.12680 | 3.11447 | 32077 ft | 464 kts | 282° |
| 2026-05-06 10:01 | 53.13488 | 3.06237 | 32402 ft | 466 kts | 282° |
| 2026-05-06 10:01 | 53.14302 | 3.01000 | 32744 ft | 468 kts | 282° |
| 2026-05-06 10:01 | 53.15088 | 2.95741 | 33044 ft | 470 kts | 282° |
| 2026-05-06 10:02 | 53.15869 | 2.90443 | 33344 ft | 472 kts | 282° |
| 2026-05-06 10:02 | 53.16664 | 2.85136 | 33640 ft | 474 kts | 282° |
| 2026-05-06 10:02 | 53.17468 | 2.79793 | 33923 ft | 476 kts | 282° |
| 2026-05-06 10:02 | 53.18269 | 2.74402 | 33961 ft | 482 kts | 282° |
| 2026-05-06 10:03 | 53.19892 | 2.63381 | 33981 ft | 496 kts | 282° |
| 2026-05-06 10:03 | 53.21554 | 2.52071 | 33977 ft | 506 kts | 282° |
| 2026-05-06 10:04 | 53.23218 | 2.40649 | 33973 ft | 507 kts | 282° |
| 2026-05-06 10:04 | 53.24869 | 2.29228 | 33977 ft | 506 kts | 282° |
| 2026-05-06 10:05 | 53.26508 | 2.17811 | 33978 ft | 505 kts | 282° |
| 2026-05-06 10:05 | 53.28134 | 2.06412 | 33977 ft | 504 kts | 282° |
| 2026-05-06 10:06 | 53.29740 | 1.95046 | 33983 ft | 501 kts | 282° |
| 2026-05-06 10:06 | 53.31322 | 1.83769 | 33970 ft | 489 kts | 282° |
| 2026-05-06 10:07 | 53.32085 | 1.78301 | 33964 ft | 476 kts | 282° |
| 2026-05-06 10:07 | 53.32832 | 1.72936 | 33962 ft | 473 kts | 282° |
| 2026-05-06 10:07 | 53.34305 | 1.62279 | 33974 ft | 468 kts | 282° |
| 2026-05-06 10:08 | 53.35749 | 1.51761 | 33980 ft | 466 kts | 281° |
| 2026-05-06 10:08 | 53.37188 | 1.41213 | 33972 ft | 464 kts | 281° |
| 2026-05-06 10:09 | 53.38614 | 1.30679 | 33975 ft | 464 kts | 281° |
| 2026-05-06 10:09 | 53.40031 | 1.20139 | 33978 ft | 464 kts | 281° |
| 2026-05-06 10:10 | 53.41437 | 1.09601 | 33979 ft | 463 kts | 281° |
| 2026-05-06 10:10 | 53.42835 | 0.99053 | 33995 ft | 463 kts | 281° |
| 2026-05-06 10:11 | 53.44214 | 0.88557 | 33993 ft | 460 kts | 281° |
| 2026-05-06 10:11 | 53.45355 | 0.79833 | 34003 ft | 461 kts | 281° |
| 2026-05-06 10:12 | 53.46719 | 0.69318 | 34004 ft | 461 kts | 280° |
| 2026-05-06 10:12 | 53.48070 | 0.58828 | 34011 ft | 459 kts | 280° |
| 2026-05-06 10:13 | 53.49413 | 0.48329 | 34013 ft | 460 kts | 280° |
| 2026-05-06 10:13 | 53.50746 | 0.37821 | 34023 ft | 460 kts | 280° |
| 2026-05-06 10:14 | 53.52070 | 0.27308 | 34024 ft | 459 kts | 280° |
| 2026-05-06 10:14 | 53.53384 | 0.16786 | 34033 ft | 461 kts | 280° |
| 2026-05-06 10:15 | 53.54691 | 0.06249 | 34030 ft | 460 kts | 280° |
| 2026-05-06 10:15 | 53.55989 | -0.04285 | 34051 ft | 460 kts | 280° |
| 2026-05-06 10:16 | 53.57272 | -0.14797 | 34053 ft | 458 kts | 280° |
| 2026-05-06 10:16 | 53.58538 | -0.25244 | 34055 ft | 458 kts | 280° |
| 2026-05-06 10:17 | 53.59801 | -0.35755 | 34055 ft | 458 kts | 280° |
| 2026-05-06 10:17 | 53.61056 | -0.46273 | 34056 ft | 458 kts | 280° |
| 2026-05-06 10:18 | 53.62302 | -0.56806 | 34055 ft | 458 kts | 280° |
| 2026-05-06 10:18 | 53.63538 | -0.67337 | 34053 ft | 458 kts | 279° |
| 2026-05-06 10:19 | 53.64767 | -0.77886 | 34052 ft | 459 kts | 279° |
| 2026-05-06 10:19 | 53.65985 | -0.88435 | 34052 ft | 459 kts | 279° |
| 2026-05-06 10:20 | 53.67195 | -0.98997 | 34055 ft | 459 kts | 279° |
| 2026-05-06 10:20 | 53.68394 | -1.09558 | 34058 ft | 458 kts | 279° |
| 2026-05-06 10:21 | 53.69582 | -1.20098 | 34061 ft | 457 kts | 279° |
| 2026-05-06 10:21 | 53.70759 | -1.30639 | 34064 ft | 457 kts | 279° |
| 2026-05-06 10:22 | 53.71920 | -1.41122 | 34059 ft | 457 kts | 279° |
| 2026-05-06 10:22 | 53.73079 | -1.51672 | 34064 ft | 457 kts | 279° |
| 2026-05-06 10:23 | 53.74228 | -1.62221 | 34058 ft | 456 kts | 279° |
| 2026-05-06 10:23 | 53.75366 | -1.72759 | 34059 ft | 456 kts | 278° |
| 2026-05-06 10:24 | 53.76495 | -1.83304 | 34059 ft | 456 kts | 278° |
| 2026-05-06 10:24 | 53.77614 | -1.93858 | 34077 ft | 456 kts | 278° |
| 2026-05-06 10:25 | 53.78725 | -2.04419 | 34074 ft | 456 kts | 278° |
| 2026-05-06 10:25 | 53.79825 | -2.14978 | 34073 ft | 455 kts | 278° |
| 2026-05-06 10:26 | 53.80912 | -2.25498 | 34064 ft | 453 kts | 278° |
| 2026-05-06 10:26 | 53.81989 | -2.36017 | 34063 ft | 453 kts | 278° |
| 2026-05-06 10:27 | 53.83055 | -2.46533 | 34062 ft | 453 kts | 278° |
| 2026-05-06 10:27 | 53.84113 | -2.57051 | 34059 ft | 453 kts | 278° |
| 2026-05-06 10:28 | 53.85161 | -2.67577 | 34073 ft | 453 kts | 278° |
| 2026-05-06 10:28 | 53.86192 | -2.78022 | 34071 ft | 452 kts | 278° |
| 2026-05-06 10:29 | 53.87218 | -2.88526 | 34079 ft | 452 kts | 278° |
| 2026-05-06 10:29 | 53.88237 | -2.99043 | 34080 ft | 452 kts | 278° |
| 2026-05-06 10:30 | 53.89245 | -3.09558 | 34080 ft | 452 kts | 278° |
| 2026-05-06 10:30 | 53.90245 | -3.20090 | 34083 ft | 453 kts | 278° |
| 2026-05-06 10:31 | 53.91238 | -3.30637 | 34082 ft | 453 kts | 278° |
| 2026-05-06 10:31 | 53.92220 | -3.41179 | 34081 ft | 453 kts | 278° |
| 2026-05-06 10:32 | 53.93288 | -3.51706 | 34093 ft | 453 kts | 283° |
| 2026-05-06 10:32 | 53.94754 | -3.62130 | 34062 ft | 454 kts | 282° |
| 2026-05-06 10:33 | 53.96203 | -3.72560 | 34077 ft | 455 kts | 282° |
| 2026-05-06 10:33 | 53.97651 | -3.83016 | 34075 ft | 455 kts | 282° |
| 2026-05-06 10:34 | 53.99088 | -3.93498 | 34076 ft | 455 kts | 282° |
| 2026-05-06 10:34 | 54.00518 | -4.03977 | 34077 ft | 455 kts | 282° |
| 2026-05-06 10:35 | 54.01935 | -4.14457 | 34080 ft | 455 kts | 282° |
| 2026-05-06 10:35 | 54.03346 | -4.24955 | 34081 ft | 456 kts | 282° |
| 2026-05-06 10:36 | 54.04752 | -4.35487 | 34084 ft | 456 kts | 282° |
| 2026-05-06 10:36 | 54.06140 | -4.45969 | 34085 ft | 456 kts | 282° |
| 2026-05-06 10:37 | 54.07527 | -4.56517 | 34067 ft | 456 kts | 282° |
| 2026-05-06 10:37 | 54.08906 | -4.67081 | 34079 ft | 457 kts | 282° |
| 2026-05-06 10:38 | 54.10274 | -4.77643 | 34058 ft | 457 kts | 282° |
| 2026-05-06 10:38 | 54.11643 | -4.88283 | 34060 ft | 459 kts | 282° |
| 2026-05-06 10:39 | 54.13003 | -4.98934 | 34063 ft | 459 kts | 282° |
| 2026-05-06 10:39 | 54.14351 | -5.09581 | 34051 ft | 460 kts | 282° |
| 2026-05-06 10:40 | 54.15690 | -5.20228 | 34057 ft | 459 kts | 282° |
| 2026-05-06 10:40 | 54.17010 | -5.30810 | 34059 ft | 459 kts | 282° |
| 2026-05-06 10:41 | 54.18334 | -5.41504 | 34058 ft | 461 kts | 282° |
| 2026-05-06 10:41 | 54.19650 | -5.52217 | 34052 ft | 461 kts | 282° |
| 2026-05-06 10:42 | 54.20955 | -5.62928 | 34048 ft | 461 kts | 282° |
| 2026-05-06 10:42 | 54.22252 | -5.73654 | 34045 ft | 461 kts | 282° |
| 2026-05-06 10:43 | 54.23538 | -5.84379 | 34040 ft | 461 kts | 282° |
| 2026-05-06 10:44 | 54.25451 | -6.00491 | 34047 ft | 461 kts | 282° |
| 2026-05-06 10:44 | 54.26714 | -6.11237 | 34057 ft | 461 kts | 282° |
| 2026-05-06 10:45 | 54.27968 | -6.21994 | 34038 ft | 461 kts | 282° |
| 2026-05-06 10:45 | 54.29214 | -6.32768 | 34033 ft | 461 kts | 281° |
| 2026-05-06 10:46 | 54.30449 | -6.43541 | 34037 ft | 461 kts | 282° |
| 2026-05-06 10:46 | 54.31667 | -6.54254 | 34037 ft | 461 kts | 282° |
| 2026-05-06 10:47 | 54.32884 | -6.65052 | 34029 ft | 461 kts | 282° |
| 2026-05-06 10:47 | 54.34092 | -6.75852 | 34025 ft | 461 kts | 282° |
| 2026-05-06 10:48 | 54.35290 | -6.86667 | 34021 ft | 462 kts | 282° |
| 2026-05-06 10:48 | 54.36478 | -6.97483 | 34036 ft | 462 kts | 282° |
| 2026-05-06 10:49 | 54.37658 | -7.08313 | 34036 ft | 462 kts | 282° |
| 2026-05-06 10:49 | 54.38828 | -7.19158 | 34037 ft | 462 kts | 282° |
| 2026-05-06 10:50 | 54.39989 | -7.30009 | 34034 ft | 462 kts | 282° |
| 2026-05-06 10:50 | 54.41141 | -7.40869 | 34035 ft | 462 kts | 282° |
| 2026-05-06 10:51 | 54.42282 | -7.51738 | 34027 ft | 463 kts | 282° |
| 2026-05-06 10:51 | 54.43416 | -7.62619 | 34027 ft | 462 kts | 282° |
| 2026-05-06 10:52 | 54.44536 | -7.73483 | 34024 ft | 462 kts | 282° |
| 2026-05-06 10:52 | 54.45647 | -7.84347 | 34025 ft | 462 kts | 282° |
| 2026-05-06 10:53 | 54.46741 | -7.95150 | 34024 ft | 462 kts | 282° |
| 2026-05-06 10:53 | 54.47834 | -8.06043 | 34010 ft | 462 kts | 282° |
| 2026-05-06 10:54 | 54.48913 | -8.16910 | 34042 ft | 459 kts | 282° |
| 2026-05-06 10:54 | 54.49976 | -8.27712 | 34038 ft | 457 kts | 282° |
| 2026-05-06 10:55 | 54.51029 | -8.38506 | 34031 ft | 457 kts | 282° |
| 2026-05-06 10:55 | 54.52070 | -8.49292 | 34038 ft | 457 kts | 282° |
| 2026-05-06 10:56 | 54.53102 | -8.60086 | 34038 ft | 457 kts | 282° |
| 2026-05-06 10:56 | 54.54124 | -8.70883 | 34042 ft | 457 kts | 282° |
| 2026-05-06 10:57 | 54.55137 | -8.81698 | 34041 ft | 457 kts | 282° |
| 2026-05-06 10:57 | 54.56142 | -8.92526 | 34047 ft | 458 kts | 282° |
| 2026-05-06 10:58 | 54.57136 | -9.03351 | 34047 ft | 458 kts | 282° |
| 2026-05-06 10:58 | 54.58121 | -9.14188 | 34044 ft | 458 kts | 282° |
| 2026-05-06 10:59 | 54.59097 | -9.25032 | 34036 ft | 457 kts | 282° |
| 2026-05-06 10:59 | 54.60057 | -9.35811 | 34039 ft | 457 kts | 282° |
| 2026-05-06 11:00 | 54.61012 | -9.46666 | 34048 ft | 457 kts | 282° |
| 2026-05-06 11:00 | 54.61317 | -9.57690 | 34059 ft | 463 kts | 274° |
| 2026-05-06 11:01 | 54.61221 | -9.68791 | 34053 ft | 463 kts | 273° |
| 2026-05-06 11:01 | 54.61144 | -9.78029 | 34046 ft | 463 kts | 274° |
| 2026-05-06 11:02 | 54.61040 | -9.89103 | 34058 ft | 460 kts | 274° |
| 2026-05-06 11:02 | 54.60926 | -10.00105 | 34059 ft | 458 kts | 274° |
| 2026-05-06 11:03 | 54.60803 | -10.11102 | 34055 ft | 458 kts | 274° |
| 2026-05-06 11:03 | 54.60669 | -10.22092 | 34055 ft | 458 kts | 274° |
| 2026-05-06 11:04 | 54.60526 | -10.33084 | 34051 ft | 459 kts | 274° |
| 2026-05-06 11:04 | 54.60372 | -10.44088 | 34053 ft | 459 kts | 274° |
| 2026-05-06 11:05 | 54.60209 | -10.55086 | 34054 ft | 459 kts | 273° |
| 2026-05-06 11:05 | 54.60035 | -10.66096 | 34051 ft | 459 kts | 273° |
| 2026-05-06 11:06 | 54.59851 | -10.77128 | 34049 ft | 459 kts | 273° |
| 2026-05-06 11:06 | 54.59658 | -10.88062 | 34046 ft | 459 kts | 273° |
| 2026-05-06 11:07 | 54.59455 | -10.99069 | 34048 ft | 459 kts | 273° |
| 2026-05-06 11:07 | 54.59241 | -11.10076 | 34048 ft | 459 kts | 273° |
| 2026-05-06 11:08 | 54.59018 | -11.21076 | 34052 ft | 459 kts | 273° |
| 2026-05-06 11:08 | 54.58784 | -11.32096 | 34053 ft | 460 kts | 273° |
| 2026-05-06 11:09 | 54.58540 | -11.43110 | 34049 ft | 460 kts | 273° |
| 2026-05-06 11:09 | 54.58286 | -11.54131 | 34050 ft | 460 kts | 272° |
| 2026-05-06 11:10 | 54.58024 | -11.65085 | 34048 ft | 460 kts | 272° |
| 2026-05-06 11:10 | 54.57750 | -11.76100 | 34052 ft | 460 kts | 272° |
| 2026-05-06 11:11 | 54.57466 | -11.87112 | 34051 ft | 460 kts | 272° |
| 2026-05-06 11:11 | 54.57172 | -11.98129 | 34037 ft | 461 kts | 272° |
| 2026-05-06 11:12 | 54.56867 | -12.09164 | 34040 ft | 461 kts | 272° |
| 2026-05-06 11:12 | 54.56552 | -12.20200 | 34041 ft | 461 kts | 272° |
| 2026-05-06 11:13 | 54.56228 | -12.31226 | 34036 ft | 461 kts | 272° |
| 2026-05-06 11:13 | 54.55893 | -12.42260 | 34036 ft | 461 kts | 272° |
| 2026-05-06 11:14 | 54.55550 | -12.53233 | 34034 ft | 461 kts | 272° |
| 2026-05-06 11:14 | 54.55195 | -12.64265 | 34032 ft | 461 kts | 272° |
| 2026-05-06 11:15 | 54.54831 | -12.75291 | 34032 ft | 461 kts | 271° |
| 2026-05-06 11:15 | 54.54455 | -12.86327 | 34032 ft | 461 kts | 271° |
| 2026-05-06 11:16 | 54.54070 | -12.97359 | 34033 ft | 461 kts | 271° |
| 2026-05-06 11:16 | 54.53674 | -13.08417 | 34052 ft | 464 kts | 271° |
| 2026-05-06 11:17 | 54.53266 | -13.19494 | 34050 ft | 463 kts | 271° |
| 2026-05-06 11:17 | 54.52850 | -13.30554 | 34054 ft | 463 kts | 271° |
| 2026-05-06 11:18 | 54.52423 | -13.41604 | 34038 ft | 460 kts | 271° |
| 2026-05-06 11:18 | 54.51993 | -13.52499 | 34019 ft | 457 kts | 271° |
| 2026-05-06 11:19 | 54.51552 | -13.63417 | 34027 ft | 457 kts | 271° |
| 2026-05-06 11:19 | 54.51100 | -13.74344 | 34027 ft | 457 kts | 271° |
| 2026-05-06 11:20 | 54.50639 | -13.85259 | 34029 ft | 457 kts | 270° |
| 2026-05-06 11:20 | 54.50168 | -13.96184 | 34029 ft | 457 kts | 270° |
| 2026-05-06 11:21 | 54.50039 | -14.07063 | 34022 ft | 455 kts | 275° |
| 2026-05-06 11:21 | 54.50056 | -14.17951 | 34028 ft | 455 kts | 275° |
| 2026-05-06 11:22 | 54.50088 | -14.28841 | 34029 ft | 455 kts | 275° |
| 2026-05-06 11:22 | 54.50099 | -14.39737 | 34031 ft | 455 kts | 274° |
| 2026-05-06 11:23 | 54.50104 | -14.50642 | 34031 ft | 456 kts | 274° |
| 2026-05-06 11:23 | 54.50098 | -14.61543 | 34030 ft | 456 kts | 274° |
| 2026-05-06 11:24 | 54.50084 | -14.72456 | 34027 ft | 456 kts | 274° |
| 2026-05-06 11:24 | 54.50058 | -14.83293 | 34025 ft | 456 kts | 274° |
| 2026-05-06 11:25 | 54.50024 | -14.94211 | 34023 ft | 456 kts | 274° |
| 2026-05-06 11:25 | 54.50117 | -15.05108 | 34039 ft | 455 kts | 276° |
| 2026-05-06 11:26 | 54.50316 | -15.16009 | 34037 ft | 455 kts | 276° |
| 2026-05-06 11:26 | 54.50528 | -15.26888 | 34024 ft | 455 kts | 276° |
| 2026-05-06 11:27 | 54.50721 | -15.37771 | 34026 ft | 455 kts | 275° |
| 2026-05-06 11:27 | 54.50906 | -15.48580 | 34026 ft | 455 kts | 275° |
| 2026-05-06 11:28 | 54.51083 | -15.59467 | 34029 ft | 455 kts | 275° |
| 2026-05-06 11:28 | 54.51248 | -15.70332 | 34033 ft | 453 kts | 275° |
| 2026-05-06 11:29 | 54.51404 | -15.81147 | 34022 ft | 452 kts | 275° |
| 2026-05-06 11:29 | 54.51549 | -15.91954 | 34019 ft | 452 kts | 275° |
| 2026-05-06 11:30 | 54.51686 | -16.02764 | 34022 ft | 452 kts | 275° |
| 2026-05-06 11:30 | 54.51812 | -16.13574 | 34021 ft | 452 kts | 274° |
| 2026-05-06 11:31 | 54.51929 | -16.24398 | 34022 ft | 452 kts | 274° |
| 2026-05-06 11:31 | 54.52037 | -16.35228 | 34022 ft | 453 kts | 274° |
| 2026-05-06 11:32 | 54.52134 | -16.46071 | 34018 ft | 453 kts | 274° |
| 2026-05-06 11:32 | 54.52223 | -16.56919 | 34021 ft | 453 kts | 274° |
| 2026-05-06 11:33 | 54.52301 | -16.67690 | 34016 ft | 453 kts | 274° |
| 2026-05-06 11:33 | 54.52370 | -16.78619 | 34019 ft | 453 kts | 274° |
| 2026-05-06 11:34 | 54.52429 | -16.89399 | 34016 ft | 453 kts | 274° |
| 2026-05-06 11:34 | 54.52478 | -17.00252 | 34017 ft | 454 kts | 274° |
| 2026-05-06 11:35 | 54.52518 | -17.11117 | 34015 ft | 454 kts | 273° |
| 2026-05-06 11:35 | 54.52548 | -17.21980 | 34022 ft | 454 kts | 273° |
| 2026-05-06 11:36 | 54.52568 | -17.32843 | 34020 ft | 454 kts | 273° |
| 2026-05-06 11:36 | 54.52579 | -17.43713 | 34009 ft | 453 kts | 273° |
| 2026-05-06 11:37 | 54.52579 | -17.54540 | 34009 ft | 451 kts | 273° |
| 2026-05-06 11:37 | 54.52570 | -17.65337 | 34010 ft | 451 kts | 272° |
| 2026-05-06 11:38 | 54.52552 | -17.76143 | 34014 ft | 451 kts | 272° |
| 2026-05-06 11:38 | 54.52524 | -17.86962 | 34014 ft | 452 kts | 272° |
| 2026-05-06 11:39 | 54.52486 | -17.97765 | 34016 ft | 452 kts | 272° |
| 2026-05-06 11:39 | 54.52439 | -18.08616 | 34009 ft | 454 kts | 272° |
| 2026-05-06 11:40 | 54.52381 | -18.19405 | 34010 ft | 454 kts | 272° |
| 2026-05-06 11:40 | 54.52314 | -18.30266 | 34010 ft | 454 kts | 272° |
| 2026-05-06 11:41 | 54.52237 | -18.41132 | 34018 ft | 454 kts | 271° |
| 2026-05-06 11:41 | 54.52151 | -18.51997 | 34014 ft | 454 kts | 271° |
| 2026-05-06 11:42 | 54.52055 | -18.62886 | 34020 ft | 457 kts | 271° |
| 2026-05-06 11:42 | 54.51947 | -18.73822 | 34020 ft | 456 kts | 271° |
| 2026-05-06 11:43 | 54.51831 | -18.84747 | 34025 ft | 457 kts | 271° |
| 2026-05-06 11:43 | 54.51705 | -18.95665 | 34025 ft | 456 kts | 271° |
| 2026-05-06 11:44 | 54.51498 | -19.11981 | 34013 ft | 457 kts | 270° |
| 2026-05-06 11:44 | 54.51346 | -19.22929 | 34014 ft | 458 kts | 270° |
| 2026-05-06 11:45 | 54.51185 | -19.33873 | 34015 ft | 458 kts | 270° |
| 2026-05-06 11:45 | 54.51014 | -19.44832 | 34018 ft | 458 kts | 270° |
| 2026-05-06 11:46 | 54.50833 | -19.55784 | 34019 ft | 458 kts | 270° |
| 2026-05-06 11:46 | 54.50642 | -19.66746 | 34006 ft | 458 kts | 270° |
| 2026-05-06 11:47 | 54.50441 | -19.77714 | 34012 ft | 459 kts | 269° |
| 2026-05-06 11:47 | 54.50229 | -19.88708 | 34013 ft | 459 kts | 269° |
| 2026-05-06 11:48 | 54.50003 | -19.99704 | 34012 ft | 459 kts | 267° |
| 2026-05-06 11:48 | 54.49386 | -20.10653 | 34026 ft | 460 kts | 265° |
| 2026-05-06 11:49 | 54.48759 | -20.21601 | 34034 ft | 460 kts | 265° |
| 2026-05-06 11:49 | 54.48109 | -20.32514 | 34026 ft | 462 kts | 264° |
| 2026-05-06 11:50 | 54.47454 | -20.43498 | 34025 ft | 462 kts | 264° |
| 2026-05-06 11:50 | 54.46783 | -20.54484 | 34029 ft | 462 kts | 264° |
| 2026-05-06 11:51 | 54.46105 | -20.65462 | 34029 ft | 462 kts | 264° |
| 2026-05-06 11:51 | 54.45417 | -20.76434 | 34032 ft | 462 kts | 264° |
| 2026-05-06 11:52 | 54.44718 | -20.87418 | 34027 ft | 463 kts | 263° |
| 2026-05-06 11:52 | 54.44128 | -20.96554 | 34029 ft | 463 kts | 263° |
| 2026-05-06 11:53 | 54.43410 | -21.07538 | 34037 ft | 462 kts | 263° |
| 2026-05-06 11:53 | 54.42683 | -21.18508 | 34042 ft | 463 kts | 263° |
| 2026-05-06 11:54 | 54.41946 | -21.29475 | 34038 ft | 461 kts | 263° |
| 2026-05-06 11:54 | 54.41200 | -21.40418 | 34027 ft | 462 kts | 263° |
| 2026-05-06 11:55 | 54.40443 | -21.51369 | 34030 ft | 462 kts | 262° |
| 2026-05-06 11:55 | 54.39677 | -21.62307 | 34026 ft | 462 kts | 262° |
| 2026-05-06 11:56 | 54.38902 | -21.73242 | 34031 ft | 462 kts | 262° |
| 2026-05-06 11:56 | 54.38121 | -21.84108 | 34026 ft | 462 kts | 262° |
| 2026-05-06 11:57 | 54.37324 | -21.95052 | 34036 ft | 463 kts | 262° |
| 2026-05-06 11:57 | 54.36516 | -22.06005 | 34035 ft | 463 kts | 262° |
| 2026-05-06 11:58 | 54.35698 | -22.16971 | 34038 ft | 463 kts | 262° |
| 2026-05-06 11:58 | 54.34869 | -22.27922 | 34029 ft | 463 kts | 261° |
| 2026-05-06 11:59 | 54.34031 | -22.38871 | 34035 ft | 463 kts | 261° |
| 2026-05-06 11:59 | 54.33185 | -22.49798 | 34035 ft | 463 kts | 261° |
| 2026-05-06 12:00 | 54.32328 | -22.60731 | 34039 ft | 463 kts | 261° |
| 2026-05-06 12:00 | 54.31461 | -22.71654 | 34044 ft | 463 kts | 261° |
| 2026-05-06 12:01 | 54.30584 | -22.82579 | 34047 ft | 463 kts | 261° |
| 2026-05-06 12:01 | 54.29703 | -22.93424 | 34045 ft | 463 kts | 261° |
| 2026-05-06 12:02 | 54.28805 | -23.04353 | 34045 ft | 464 kts | 261° |
| 2026-05-06 12:02 | 54.27898 | -23.15267 | 34045 ft | 464 kts | 261° |
| 2026-05-06 12:03 | 54.26979 | -23.26203 | 34051 ft | 464 kts | 261° |
| 2026-05-06 12:03 | 54.26051 | -23.37118 | 34056 ft | 464 kts | 261° |
| 2026-05-06 12:04 | 54.25114 | -23.48029 | 34060 ft | 464 kts | 260° |
| 2026-05-06 12:04 | 54.24164 | -23.58967 | 34065 ft | 464 kts | 260° |
| 2026-05-06 12:05 | 54.23206 | -23.69874 | 34061 ft | 464 kts | 260° |
| 2026-05-06 12:05 | 54.22239 | -23.80767 | 34066 ft | 464 kts | 260° |
| 2026-05-06 12:06 | 54.21263 | -23.91653 | 34065 ft | 464 kts | 259° |
| 2026-05-06 12:06 | 54.20282 | -24.02476 | 34067 ft | 464 kts | 259° |
| 2026-05-06 12:07 | 54.19279 | -24.13422 | 34063 ft | 466 kts | 259° |
| 2026-05-06 12:07 | 54.18270 | -24.24338 | 34064 ft | 465 kts | 259° |
| 2026-05-06 12:08 | 54.17251 | -24.35232 | 34065 ft | 465 kts | 259° |
| 2026-05-06 12:08 | 54.16222 | -24.46130 | 34065 ft | 465 kts | 259° |
| 2026-05-06 12:09 | 54.15184 | -24.57019 | 34063 ft | 466 kts | 258° |
| 2026-05-06 12:09 | 54.14127 | -24.67978 | 34070 ft | 468 kts | 258° |
| 2026-05-06 12:10 | 54.13062 | -24.78930 | 34070 ft | 468 kts | 258° |
| 2026-05-06 12:10 | 54.11985 | -24.89890 | 34070 ft | 468 kts | 258° |
| 2026-05-06 12:11 | 54.10899 | -25.00843 | 34071 ft | 469 kts | 258° |
| 2026-05-06 12:11 | 54.09808 | -25.11727 | 34063 ft | 470 kts | 257° |
| 2026-05-06 12:12 | 54.08696 | -25.22718 | 34063 ft | 471 kts | 257° |
| 2026-05-06 12:12 | 54.07575 | -25.33707 | 34063 ft | 471 kts | 257° |
| 2026-05-06 12:13 | 54.06444 | -25.44676 | 34062 ft | 471 kts | 257° |
| 2026-05-06 12:13 | 54.05304 | -25.55644 | 34065 ft | 471 kts | 257° |
| 2026-05-06 12:14 | 54.04150 | -25.66632 | 34073 ft | 472 kts | 256° |
| 2026-05-06 12:14 | 54.02986 | -25.77613 | 34084 ft | 472 kts | 256° |
| 2026-05-06 12:15 | 54.01812 | -25.88600 | 34072 ft | 471 kts | 256° |
| 2026-05-06 12:15 | 54.00630 | -25.99549 | 34074 ft | 471 kts | 256° |
| 2026-05-06 12:16 | 53.99438 | -26.10493 | 34078 ft | 471 kts | 256° |
| 2026-05-06 12:16 | 53.98234 | -26.21455 | 34078 ft | 472 kts | 256° |
| 2026-05-06 12:17 | 53.97019 | -26.32420 | 34077 ft | 472 kts | 256° |
| 2026-05-06 12:17 | 53.95801 | -26.43311 | 34079 ft | 472 kts | 256° |
| 2026-05-06 12:18 | 53.94568 | -26.54252 | 34076 ft | 472 kts | 256° |
| 2026-05-06 12:18 | 53.93322 | -26.65200 | 34096 ft | 472 kts | 256° |
| 2026-05-06 12:19 | 53.92065 | -26.76156 | 34074 ft | 473 kts | 256° |
| 2026-05-06 12:19 | 53.90799 | -26.87106 | 34077 ft | 473 kts | 256° |
| 2026-05-06 12:20 | 53.89522 | -26.98050 | 34068 ft | 473 kts | 256° |
| 2026-05-06 12:20 | 53.88233 | -27.08999 | 34070 ft | 473 kts | 255° |
| 2026-05-06 12:21 | 53.86936 | -27.19932 | 34078 ft | 474 kts | 255° |
| 2026-05-06 12:21 | 53.85628 | -27.30864 | 34073 ft | 474 kts | 255° |
| 2026-05-06 12:22 | 53.84319 | -27.41721 | 34074 ft | 473 kts | 255° |
| 2026-05-06 12:22 | 53.82992 | -27.52633 | 34070 ft | 473 kts | 255° |
| 2026-05-06 12:23 | 53.81655 | -27.63540 | 34076 ft | 473 kts | 255° |
| 2026-05-06 12:23 | 53.80306 | -27.74456 | 34074 ft | 473 kts | 255° |
| 2026-05-06 12:24 | 53.78949 | -27.85351 | 34076 ft | 473 kts | 255° |
| 2026-05-06 12:24 | 53.77583 | -27.96240 | 34073 ft | 474 kts | 255° |
| 2026-05-06 12:25 | 53.76205 | -28.07127 | 34062 ft | 474 kts | 255° |
| 2026-05-06 12:25 | 53.74817 | -28.18014 | 34065 ft | 473 kts | 254° |
| 2026-05-06 12:26 | 53.73423 | -28.28861 | 34052 ft | 472 kts | 255° |
| 2026-05-06 12:26 | 53.72021 | -28.39686 | 34050 ft | 472 kts | 254° |
| 2026-05-06 12:27 | 53.70611 | -28.50496 | 34049 ft | 472 kts | 254° |
| 2026-05-06 12:27 | 53.69197 | -28.61254 | 34043 ft | 472 kts | 254° |
| 2026-05-06 12:28 | 53.67765 | -28.72058 | 34048 ft | 472 kts | 254° |
| 2026-05-06 12:28 | 53.66323 | -28.82868 | 34045 ft | 472 kts | 255° |
| 2026-05-06 12:29 | 53.64874 | -28.93646 | 34043 ft | 472 kts | 255° |
| 2026-05-06 12:29 | 53.63414 | -29.04425 | 34036 ft | 472 kts | 254° |
| 2026-05-06 12:30 | 53.61946 | -29.15187 | 34038 ft | 471 kts | 254° |
| 2026-05-06 12:30 | 53.60467 | -29.25946 | 34044 ft | 471 kts | 255° |
| 2026-05-06 12:31 | 53.58980 | -29.36695 | 34038 ft | 471 kts | 255° |
| 2026-05-06 12:31 | 53.57481 | -29.47449 | 34037 ft | 472 kts | 254° |
| 2026-05-06 12:32 | 53.55974 | -29.58181 | 34034 ft | 472 kts | 254° |
| 2026-05-06 12:32 | 53.54466 | -29.68851 | 34031 ft | 472 kts | 254° |
| 2026-05-06 12:33 | 53.52935 | -29.79597 | 34028 ft | 473 kts | 254° |
| 2026-05-06 12:33 | 53.51396 | -29.90339 | 34018 ft | 472 kts | 254° |
| 2026-05-06 12:34 | 53.49803 | -30.01042 | 34025 ft | 471 kts | 249° |
| 2026-05-06 12:34 | 53.47744 | -30.11490 | 34022 ft | 471 kts | 250° |
| 2026-05-06 12:35 | 53.45689 | -30.21928 | 34023 ft | 471 kts | 250° |
| 2026-05-06 12:35 | 53.43616 | -30.32366 | 34014 ft | 473 kts | 250° |
| 2026-05-06 12:36 | 53.41533 | -30.42821 | 34018 ft | 473 kts | 250° |
| 2026-05-06 12:36 | 53.39436 | -30.53275 | 34020 ft | 473 kts | 250° |
| 2026-05-06 12:37 | 53.37333 | -30.63712 | 34020 ft | 473 kts | 250° |
| 2026-05-06 12:37 | 53.35218 | -30.74143 | 34024 ft | 473 kts | 250° |
| 2026-05-06 12:38 | 53.33108 | -30.84508 | 34025 ft | 474 kts | 250° |
| 2026-05-06 12:38 | 53.30971 | -30.94941 | 34027 ft | 474 kts | 250° |
| 2026-05-06 12:39 | 53.28824 | -31.05370 | 34030 ft | 474 kts | 250° |
| 2026-05-06 12:39 | 53.26675 | -31.15754 | 34027 ft | 472 kts | 250° |
| 2026-05-06 12:40 | 53.24522 | -31.26104 | 34034 ft | 472 kts | 250° |
| 2026-05-06 12:40 | 53.22361 | -31.36440 | 34033 ft | 471 kts | 250° |
| 2026-05-06 12:41 | 53.20188 | -31.46777 | 34040 ft | 471 kts | 250° |
| 2026-05-06 12:41 | 53.18011 | -31.57089 | 34041 ft | 472 kts | 250° |
| 2026-05-06 12:42 | 53.15833 | -31.67346 | 34050 ft | 472 kts | 250° |
| 2026-05-06 12:42 | 53.13993 | -31.75972 | 34045 ft | 472 kts | 250° |
| 2026-05-06 12:43 | 53.11428 | -31.87933 | 34051 ft | 471 kts | 250° |
| 2026-05-06 12:43 | 53.09214 | -31.98204 | 34057 ft | 471 kts | 250° |
| 2026-05-06 12:44 | 53.07366 | -32.06741 | 34054 ft | 472 kts | 250° |
| 2026-05-06 12:44 | 53.05121 | -32.17059 | 34057 ft | 472 kts | 250° |
| 2026-05-06 12:45 | 53.02891 | -32.27259 | 34054 ft | 472 kts | 250° |
| 2026-05-06 12:46 | 52.99509 | -32.42631 | 34058 ft | 473 kts | 250° |
| 2026-05-06 12:46 | 52.97240 | -32.52884 | 34067 ft | 473 kts | 250° |
| 2026-05-06 12:47 | 52.94961 | -32.63128 | 34064 ft | 473 kts | 249° |
| 2026-05-06 12:47 | 52.92674 | -32.73357 | 34067 ft | 473 kts | 249° |
| 2026-05-06 12:48 | 52.90380 | -32.83571 | 34069 ft | 473 kts | 249° |
| 2026-05-06 12:48 | 52.88075 | -32.93781 | 34077 ft | 473 kts | 249° |
| 2026-05-06 12:49 | 52.85760 | -33.03987 | 34078 ft | 473 kts | 249° |
| 2026-05-06 12:49 | 52.83436 | -33.14181 | 34080 ft | 474 kts | 249° |
| 2026-05-06 12:50 | 52.81100 | -33.24381 | 34080 ft | 474 kts | 249° |
| 2026-05-06 12:50 | 52.78753 | -33.34578 | 34084 ft | 475 kts | 249° |
| 2026-05-06 12:51 | 52.76399 | -33.44758 | 34090 ft | 475 kts | 249° |
| 2026-05-06 12:51 | 52.74035 | -33.54933 | 34087 ft | 475 kts | 249° |
| 2026-05-06 12:52 | 52.71661 | -33.65101 | 34093 ft | 475 kts | 249° |
| 2026-05-06 12:52 | 52.69294 | -33.75194 | 34094 ft | 475 kts | 249° |
| 2026-05-06 12:53 | 52.66900 | -33.85350 | 34095 ft | 475 kts | 249° |
| 2026-05-06 12:53 | 52.64499 | -33.95490 | 34091 ft | 476 kts | 249° |
| 2026-05-06 12:54 | 52.62084 | -34.05643 | 34100 ft | 477 kts | 249° |
| 2026-05-06 12:54 | 52.59655 | -34.15804 | 34104 ft | 477 kts | 249° |
| 2026-05-06 12:55 | 52.57217 | -34.25959 | 34104 ft | 477 kts | 249° |
| 2026-05-06 12:55 | 52.54771 | -34.36096 | 34110 ft | 477 kts | 249° |
| 2026-05-06 12:56 | 52.52331 | -34.46159 | 34106 ft | 477 kts | 249° |
| 2026-05-06 12:56 | 52.49870 | -34.56270 | 34110 ft | 476 kts | 249° |
| 2026-05-06 12:57 | 52.47403 | -34.66351 | 34110 ft | 476 kts | 249° |
| 2026-05-06 12:57 | 52.44928 | -34.76422 | 34115 ft | 476 kts | 249° |
| 2026-05-06 12:58 | 52.42445 | -34.86480 | 34115 ft | 476 kts | 249° |
| 2026-05-06 12:58 | 52.39951 | -34.96535 | 34112 ft | 476 kts | 249° |
| 2026-05-06 12:59 | 52.37449 | -35.06578 | 34112 ft | 476 kts | 249° |
| 2026-05-06 12:59 | 52.34940 | -35.16605 | 34113 ft | 476 kts | 249° |
| 2026-05-06 13:00 | 52.32420 | -35.26626 | 34112 ft | 476 kts | 249° |
| 2026-05-06 13:00 | 52.29895 | -35.36627 | 34111 ft | 476 kts | 249° |
| 2026-05-06 13:01 | 52.27361 | -35.46615 | 34115 ft | 476 kts | 249° |
| 2026-05-06 13:01 | 52.24821 | -35.56585 | 34115 ft | 476 kts | 249° |
| 2026-05-06 13:02 | 52.22273 | -35.66539 | 34115 ft | 476 kts | 249° |
| 2026-05-06 13:02 | 52.19716 | -35.76485 | 34103 ft | 476 kts | 249° |
| 2026-05-06 13:03 | 52.17150 | -35.86423 | 34108 ft | 475 kts | 249° |
| 2026-05-06 13:03 | 52.14579 | -35.96340 | 34108 ft | 475 kts | 249° |
| 2026-05-06 13:04 | 52.11998 | -36.06245 | 34108 ft | 475 kts | 249° |
| 2026-05-06 13:04 | 52.09424 | -36.16084 | 34108 ft | 475 kts | 249° |
| 2026-05-06 13:05 | 52.06827 | -36.25964 | 34114 ft | 475 kts | 250° |
| 2026-05-06 13:05 | 52.04231 | -36.35806 | 34104 ft | 473 kts | 249° |
| 2026-05-06 13:06 | 52.01630 | -36.45619 | 34106 ft | 473 kts | 249° |
| 2026-05-06 13:06 | 51.99020 | -36.55422 | 34102 ft | 473 kts | 249° |
| 2026-05-06 13:07 | 51.96402 | -36.65216 | 34101 ft | 473 kts | 250° |
| 2026-05-06 13:07 | 51.93782 | -36.74974 | 34109 ft | 472 kts | 250° |
| 2026-05-06 13:08 | 51.91158 | -36.84710 | 34108 ft | 471 kts | 250° |
| 2026-05-06 13:08 | 51.88525 | -36.94432 | 34111 ft | 472 kts | 250° |
| 2026-05-06 13:09 | 51.85883 | -37.04149 | 34104 ft | 472 kts | 249° |
| 2026-05-06 13:09 | 51.83252 | -37.13788 | 34108 ft | 472 kts | 250° |
| 2026-05-06 13:10 | 51.80591 | -37.23492 | 34112 ft | 472 kts | 249° |
| 2026-05-06 13:10 | 51.77923 | -37.33181 | 34112 ft | 472 kts | 249° |
| 2026-05-06 13:11 | 51.75247 | -37.42862 | 34112 ft | 472 kts | 249° |
| 2026-05-06 13:11 | 51.72563 | -37.52529 | 34114 ft | 472 kts | 250° |
| 2026-05-06 13:12 | 51.69875 | -37.62174 | 34112 ft | 471 kts | 250° |
| 2026-05-06 13:12 | 51.67179 | -37.71805 | 34116 ft | 471 kts | 250° |
| 2026-05-06 13:13 | 51.64477 | -37.81417 | 34113 ft | 471 kts | 250° |
| 2026-05-06 13:13 | 51.61767 | -37.91022 | 34094 ft | 471 kts | 250° |
| 2026-05-06 13:14 | 51.59050 | -38.00610 | 34126 ft | 471 kts | 250° |
| 2026-05-06 13:14 | 51.56325 | -38.10188 | 34126 ft | 471 kts | 250° |
| 2026-05-06 13:15 | 51.53593 | -38.19750 | 34132 ft | 471 kts | 250° |
| 2026-05-06 13:15 | 51.50852 | -38.29304 | 34130 ft | 471 kts | 250° |
| 2026-05-06 13:16 | 51.48103 | -38.38844 | 34128 ft | 471 kts | 251° |
| 2026-05-06 13:16 | 51.45351 | -38.48369 | 34129 ft | 470 kts | 251° |
| 2026-05-06 13:17 | 51.42589 | -38.57881 | 34129 ft | 470 kts | 250° |
| 2026-05-06 13:17 | 51.39822 | -38.67374 | 34131 ft | 471 kts | 250° |
| 2026-05-06 13:18 | 51.37063 | -38.76798 | 34127 ft | 470 kts | 251° |
| 2026-05-06 13:18 | 51.34282 | -38.86267 | 34136 ft | 470 kts | 251° |
| 2026-05-06 13:19 | 51.31492 | -38.95726 | 34134 ft | 470 kts | 251° |
| 2026-05-06 13:19 | 51.28695 | -39.05173 | 34135 ft | 470 kts | 251° |
| 2026-05-06 13:20 | 51.25888 | -39.14614 | 34136 ft | 470 kts | 251° |
| 2026-05-06 13:20 | 51.23082 | -39.24014 | 34149 ft | 468 kts | 251° |
| 2026-05-06 13:21 | 51.20275 | -39.33384 | 34145 ft | 467 kts | 251° |
| 2026-05-06 13:21 | 51.17463 | -39.42731 | 34143 ft | 468 kts | 251° |
| 2026-05-06 13:22 | 51.14645 | -39.52067 | 34146 ft | 468 kts | 251° |
| 2026-05-06 13:22 | 51.11819 | -39.61381 | 34140 ft | 467 kts | 252° |
| 2026-05-06 13:23 | 51.08998 | -39.70664 | 34141 ft | 466 kts | 252° |
| 2026-05-06 13:23 | 51.06166 | -39.79933 | 34140 ft | 466 kts | 252° |
| 2026-05-06 13:24 | 51.03326 | -39.89195 | 34145 ft | 466 kts | 252° |
| 2026-05-06 13:24 | 51.00395 | -39.98388 | 34141 ft | 472 kts | 246° |
| 2026-05-06 13:25 | 50.96242 | -40.06581 | 34157 ft | 484 kts | 237° |
| 2026-05-06 13:25 | 50.91696 | -40.14491 | 34161 ft | 485 kts | 237° |
| 2026-05-06 13:26 | 50.87156 | -40.22386 | 34160 ft | 485 kts | 237° |
| 2026-05-06 13:26 | 50.82606 | -40.30266 | 34145 ft | 484 kts | 237° |
| 2026-05-06 13:27 | 50.78066 | -40.38106 | 34156 ft | 482 kts | 237° |
| 2026-05-06 13:27 | 50.73541 | -40.45902 | 34155 ft | 481 kts | 237° |
| 2026-05-06 13:28 | 50.69008 | -40.53681 | 34152 ft | 481 kts | 237° |
| 2026-05-06 13:28 | 50.64465 | -40.61457 | 34518 ft | 482 kts | 237° |
| 2026-05-06 13:28 | 50.62194 | -40.65332 | 34858 ft | 481 kts | 237° |
| 2026-05-06 13:29 | 50.59928 | -40.69196 | 35187 ft | 480 kts | 236° |
| 2026-05-06 13:29 | 50.57661 | -40.73055 | 35506 ft | 480 kts | 236° |
| 2026-05-06 13:29 | 50.55394 | -40.76910 | 35809 ft | 480 kts | 235° |
| 2026-05-06 13:29 | 50.53125 | -40.80758 | 36112 ft | 480 kts | 235° |
| 2026-05-06 13:30 | 50.50854 | -40.84607 | 36408 ft | 480 kts | 234° |
| 2026-05-06 13:30 | 50.48584 | -40.88448 | 36710 ft | 480 kts | 234° |
| 2026-05-06 13:30 | 50.46311 | -40.92288 | 36996 ft | 480 kts | 234° |
| 2026-05-06 13:30 | 50.44036 | -40.96124 | 37265 ft | 481 kts | 233° |
| 2026-05-06 13:31 | 50.41757 | -40.99963 | 37501 ft | 481 kts | 233° |
| 2026-05-06 13:31 | 50.39505 | -41.03750 | 37765 ft | 482 kts | 233° |
| 2026-05-06 13:31 | 50.37217 | -41.07591 | 38041 ft | 482 kts | 232° |
| 2026-05-06 13:31 | 50.34927 | -41.11430 | 38162 ft | 483 kts | 232° |
| 2026-05-06 13:32 | 50.32643 | -41.15251 | 38161 ft | 480 kts | 232° |
| 2026-05-06 13:32 | 50.28858 | -41.21572 | 38185 ft | 476 kts | 232° |
| 2026-05-06 13:33 | 50.24333 | -41.29116 | 38161 ft | 475 kts | 232° |
| 2026-05-06 13:33 | 50.19817 | -41.36615 | 38185 ft | 474 kts | 232° |
| 2026-05-06 13:34 | 50.15299 | -41.44100 | 38183 ft | 473 kts | 232° |
| 2026-05-06 13:34 | 50.10778 | -41.51565 | 38181 ft | 473 kts | 232° |
| 2026-05-06 13:35 | 50.06253 | -41.59017 | 38178 ft | 473 kts | 232° |
| 2026-05-06 13:35 | 50.01726 | -41.66447 | 38183 ft | 473 kts | 232° |
| 2026-05-06 13:36 | 49.97190 | -41.73872 | 38192 ft | 474 kts | 232° |
| 2026-05-06 13:36 | 49.92656 | -41.81270 | 38198 ft | 473 kts | 232° |
| 2026-05-06 13:37 | 49.88114 | -41.88663 | 38198 ft | 473 kts | 232° |
| 2026-05-06 13:37 | 49.83568 | -41.96039 | 38197 ft | 473 kts | 232° |
| 2026-05-06 13:38 | 49.79020 | -42.03398 | 38200 ft | 473 kts | 232° |
| 2026-05-06 13:38 | 49.74468 | -42.10739 | 38196 ft | 473 kts | 232° |
| 2026-05-06 13:39 | 49.69941 | -42.18021 | 38206 ft | 473 kts | 232° |
| 2026-05-06 13:39 | 49.65380 | -42.25337 | 38207 ft | 473 kts | 232° |
| 2026-05-06 13:40 | 49.60817 | -42.32635 | 38203 ft | 473 kts | 232° |
| 2026-05-06 13:40 | 49.56250 | -42.39917 | 38212 ft | 472 kts | 232° |
| 2026-05-06 13:41 | 49.51679 | -42.47187 | 38212 ft | 472 kts | 232° |
| 2026-05-06 13:41 | 49.47104 | -42.54440 | 38213 ft | 472 kts | 232° |
| 2026-05-06 13:42 | 49.42519 | -42.61689 | 38217 ft | 472 kts | 232° |
| 2026-05-06 13:42 | 49.37970 | -42.68860 | 38219 ft | 471 kts | 232° |
| 2026-05-06 13:43 | 49.33393 | -42.76056 | 38218 ft | 471 kts | 232° |
| 2026-05-06 13:43 | 49.28811 | -42.83239 | 38225 ft | 471 kts | 232° |
| 2026-05-06 13:44 | 49.24227 | -42.90405 | 38193 ft | 471 kts | 232° |
| 2026-05-06 13:44 | 49.19640 | -42.97555 | 38226 ft | 470 kts | 232° |
| 2026-05-06 13:45 | 49.15051 | -43.04688 | 38225 ft | 470 kts | 232° |
| 2026-05-06 13:45 | 49.08167 | -43.15351 | 38232 ft | 470 kts | 232° |
| 2026-05-06 13:46 | 49.03602 | -43.22398 | 38228 ft | 470 kts | 232° |
| 2026-05-06 13:46 | 48.99005 | -43.29473 | 38227 ft | 470 kts | 232° |
| 2026-05-06 13:47 | 48.94404 | -43.36537 | 38228 ft | 470 kts | 232° |
| 2026-05-06 13:47 | 48.89802 | -43.43582 | 38231 ft | 471 kts | 232° |
| 2026-05-06 13:48 | 48.85184 | -43.50629 | 38234 ft | 470 kts | 231° |
| 2026-05-06 13:48 | 48.80567 | -43.57660 | 38234 ft | 470 kts | 231° |
| 2026-05-06 13:49 | 48.75939 | -43.64684 | 38231 ft | 470 kts | 231° |
| 2026-05-06 13:49 | 48.71309 | -43.71693 | 38237 ft | 470 kts | 231° |
| 2026-05-06 13:50 | 48.66673 | -43.78692 | 38240 ft | 471 kts | 231° |
| 2026-05-06 13:50 | 48.62030 | -43.85683 | 38240 ft | 471 kts | 231° |
| 2026-05-06 13:51 | 48.57420 | -43.92605 | 38244 ft | 471 kts | 231° |
| 2026-05-06 13:51 | 48.52773 | -43.99563 | 38268 ft | 470 kts | 231° |
| 2026-05-06 13:52 | 48.48134 | -44.06491 | 38255 ft | 469 kts | 231° |
| 2026-05-06 13:52 | 48.43490 | -44.13407 | 38237 ft | 469 kts | 231° |
| 2026-05-06 13:53 | 48.38843 | -44.20308 | 38266 ft | 469 kts | 231° |
| 2026-05-06 13:53 | 48.34197 | -44.27189 | 38252 ft | 468 kts | 231° |
| 2026-05-06 13:54 | 48.29567 | -44.34028 | 38255 ft | 466 kts | 231° |
| 2026-05-06 13:54 | 48.24936 | -44.40851 | 38256 ft | 466 kts | 231° |
| 2026-05-06 13:55 | 48.20305 | -44.47655 | 38262 ft | 466 kts | 231° |
| 2026-05-06 13:55 | 48.15672 | -44.54443 | 38276 ft | 465 kts | 231° |
| 2026-05-06 13:56 | 48.11045 | -44.61206 | 38278 ft | 465 kts | 231° |
| 2026-05-06 13:56 | 48.06444 | -44.67912 | 38278 ft | 465 kts | 231° |
| 2026-05-06 13:57 | 48.01804 | -44.74657 | 38248 ft | 465 kts | 230° |
| 2026-05-06 13:57 | 47.97172 | -44.81372 | 38288 ft | 464 kts | 230° |
| 2026-05-06 13:58 | 47.92541 | -44.88070 | 38289 ft | 464 kts | 230° |
| 2026-05-06 13:58 | 47.87902 | -44.94760 | 38295 ft | 464 kts | 230° |
| 2026-05-06 13:59 | 47.83255 | -45.01444 | 38291 ft | 464 kts | 230° |
| 2026-05-06 13:59 | 47.78604 | -45.08116 | 38294 ft | 464 kts | 230° |
| 2026-05-06 14:00 | 47.73957 | -45.14768 | 38301 ft | 464 kts | 230° |
| 2026-05-06 14:00 | 47.69300 | -45.21413 | 38305 ft | 464 kts | 230° |
| 2026-05-06 14:01 | 47.64640 | -45.28047 | 38289 ft | 464 kts | 230° |
| 2026-05-06 14:01 | 47.60013 | -45.34616 | 38320 ft | 463 kts | 230° |
| 2026-05-06 14:02 | 47.55355 | -45.41213 | 38328 ft | 463 kts | 230° |
| 2026-05-06 14:02 | 47.50693 | -45.47798 | 38306 ft | 463 kts | 230° |
| 2026-05-06 14:03 | 47.46037 | -45.54356 | 38318 ft | 461 kts | 229° |
| 2026-05-06 14:03 | 47.41391 | -45.60886 | 38323 ft | 461 kts | 229° |
| 2026-05-06 14:04 | 47.36747 | -45.67395 | 38323 ft | 461 kts | 229° |
| 2026-05-06 14:04 | 47.32127 | -45.73855 | 38313 ft | 460 kts | 229° |
| 2026-05-06 14:05 | 47.27489 | -45.80320 | 38334 ft | 458 kts | 229° |
| 2026-05-06 14:05 | 47.22859 | -45.86762 | 38333 ft | 458 kts | 229° |
| 2026-05-06 14:06 | 47.18227 | -45.93188 | 38336 ft | 458 kts | 229° |
| 2026-05-06 14:06 | 47.13592 | -45.99603 | 38336 ft | 457 kts | 229° |
| 2026-05-06 14:07 | 47.08975 | -46.05976 | 38332 ft | 454 kts | 229° |
| 2026-05-06 14:07 | 47.04371 | -46.12318 | 38336 ft | 454 kts | 229° |
| 2026-05-06 14:08 | 46.99761 | -46.18649 | 38338 ft | 454 kts | 228° |
| 2026-05-06 14:08 | 46.95146 | -46.24973 | 38340 ft | 454 kts | 228° |
| 2026-05-06 14:09 | 46.90528 | -46.31285 | 38341 ft | 454 kts | 228° |
| 2026-05-06 14:09 | 46.85906 | -46.37588 | 38344 ft | 454 kts | 228° |
| 2026-05-06 14:10 | 46.81275 | -46.43886 | 38327 ft | 455 kts | 228° |
| 2026-05-06 14:10 | 46.76647 | -46.50165 | 38346 ft | 454 kts | 228° |
| 2026-05-06 14:11 | 46.72049 | -46.56389 | 38350 ft | 454 kts | 228° |
| 2026-05-06 14:11 | 46.67419 | -46.62640 | 38355 ft | 454 kts | 228° |
| 2026-05-06 14:12 | 46.62780 | -46.68887 | 38357 ft | 453 kts | 228° |
| 2026-05-06 14:12 | 46.58165 | -46.75088 | 38357 ft | 451 kts | 228° |
| 2026-05-06 14:13 | 46.53552 | -46.81271 | 38358 ft | 451 kts | 228° |
| 2026-05-06 14:13 | 46.48937 | -46.87441 | 38360 ft | 451 kts | 228° |
| 2026-05-06 14:14 | 46.44322 | -46.93597 | 38361 ft | 450 kts | 228° |
| 2026-05-06 14:14 | 46.39738 | -46.99697 | 38366 ft | 450 kts | 228° |
| 2026-05-06 14:15 | 46.35126 | -47.05819 | 38364 ft | 450 kts | 228° |
| 2026-05-06 14:15 | 46.30511 | -47.11931 | 38352 ft | 450 kts | 228° |
| 2026-05-06 14:16 | 46.25891 | -47.18034 | 38369 ft | 449 kts | 228° |
| 2026-05-06 14:16 | 46.21274 | -47.24120 | 38375 ft | 449 kts | 228° |
| 2026-05-06 14:17 | 46.16652 | -47.30197 | 38379 ft | 449 kts | 227° |
| 2026-05-06 14:17 | 46.12028 | -47.36263 | 38382 ft | 450 kts | 227° |
| 2026-05-06 14:18 | 46.07389 | -47.42333 | 38385 ft | 450 kts | 227° |
| 2026-05-06 14:18 | 46.02746 | -47.48395 | 38386 ft | 450 kts | 227° |
| 2026-05-06 14:19 | 45.98131 | -47.54405 | 38392 ft | 451 kts | 227° |
| 2026-05-06 14:19 | 45.93484 | -47.60444 | 38398 ft | 451 kts | 227° |
| 2026-05-06 14:20 | 45.88825 | -47.66483 | 38399 ft | 451 kts | 227° |
| 2026-05-06 14:20 | 45.84169 | -47.72505 | 38403 ft | 451 kts | 227° |
| 2026-05-06 14:21 | 45.79507 | -47.78520 | 38389 ft | 451 kts | 227° |
| 2026-05-06 14:21 | 45.74839 | -47.84528 | 38399 ft | 451 kts | 227° |
| 2026-05-06 14:22 | 45.70170 | -47.90524 | 38400 ft | 451 kts | 226° |
| 2026-05-06 14:22 | 45.65528 | -47.96470 | 38403 ft | 451 kts | 226° |
| 2026-05-06 14:23 | 45.60858 | -48.02440 | 38401 ft | 450 kts | 226° |
| 2026-05-06 14:23 | 45.56190 | -48.08393 | 38407 ft | 450 kts | 226° |
| 2026-05-06 14:24 | 45.51519 | -48.14336 | 38411 ft | 450 kts | 226° |
| 2026-05-06 14:24 | 45.46846 | -48.20267 | 38407 ft | 450 kts | 226° |
| 2026-05-06 14:25 | 45.42967 | -48.25179 | 38427 ft | 449 kts | 226° |
| 2026-05-06 14:25 | 45.38294 | -48.31087 | 38410 ft | 449 kts | 226° |
| 2026-05-06 14:26 | 45.33617 | -48.36984 | 38407 ft | 449 kts | 226° |
| 2026-05-06 14:26 | 45.28935 | -48.42875 | 38412 ft | 449 kts | 226° |
| 2026-05-06 14:27 | 45.24249 | -48.48757 | 38414 ft | 450 kts | 226° |
| 2026-05-06 14:27 | 45.19562 | -48.54627 | 38419 ft | 450 kts | 226° |
| 2026-05-06 14:28 | 45.14867 | -48.60494 | 38418 ft | 450 kts | 226° |
| 2026-05-06 14:28 | 45.10174 | -48.66345 | 38432 ft | 450 kts | 225° |
| 2026-05-06 14:29 | 45.05507 | -48.72150 | 38433 ft | 450 kts | 225° |
| 2026-05-06 14:29 | 45.00807 | -48.77982 | 38435 ft | 450 kts | 225° |
| 2026-05-06 14:30 | 44.96103 | -48.83807 | 38431 ft | 449 kts | 225° |
| 2026-05-06 14:30 | 44.91398 | -48.89620 | 38427 ft | 449 kts | 225° |
| 2026-05-06 14:31 | 44.86695 | -48.95417 | 38436 ft | 449 kts | 225° |
| 2026-05-06 14:31 | 44.81986 | -49.01207 | 38430 ft | 449 kts | 225° |
| 2026-05-06 14:32 | 44.77277 | -49.06987 | 38433 ft | 449 kts | 225° |
| 2026-05-06 14:32 | 44.72566 | -49.12753 | 38436 ft | 449 kts | 225° |
| 2026-05-06 14:33 | 44.67850 | -49.18515 | 38439 ft | 449 kts | 225° |
| 2026-05-06 14:33 | 44.63130 | -49.24268 | 38440 ft | 449 kts | 225° |
| 2026-05-06 14:34 | 44.58418 | -49.29998 | 38438 ft | 448 kts | 225° |
| 2026-05-06 14:34 | 44.53703 | -49.35720 | 38442 ft | 448 kts | 225° |
| 2026-05-06 14:35 | 44.48985 | -49.41431 | 38446 ft | 448 kts | 225° |
| 2026-05-06 14:35 | 44.44266 | -49.47131 | 38441 ft | 447 kts | 224° |
| 2026-05-06 14:36 | 44.39551 | -49.52814 | 38444 ft | 447 kts | 224° |
| 2026-05-06 14:36 | 44.34836 | -49.58486 | 38444 ft | 448 kts | 224° |
| 2026-05-06 14:37 | 44.30146 | -49.64113 | 38451 ft | 447 kts | 224° |
| 2026-05-06 14:37 | 44.25449 | -49.69737 | 38444 ft | 444 kts | 224° |
| 2026-05-06 14:38 | 44.20760 | -49.75341 | 38455 ft | 443 kts | 224° |
| 2026-05-06 14:38 | 44.16076 | -49.80924 | 38440 ft | 443 kts | 224° |
| 2026-05-06 14:39 | 44.11408 | -49.86478 | 38452 ft | 440 kts | 225° |
| 2026-05-06 14:39 | 44.06764 | -49.91992 | 38465 ft | 438 kts | 224° |
| 2026-05-06 14:40 | 44.02119 | -49.97493 | 38465 ft | 438 kts | 224° |
| 2026-05-06 14:40 | 43.97634 | -50.03173 | 38453 ft | 434 kts | 228° |
| 2026-05-06 14:41 | 43.93287 | -50.08961 | 38462 ft | 432 kts | 228° |
| 2026-05-06 14:41 | 43.88948 | -50.14748 | 38465 ft | 432 kts | 228° |
| 2026-05-06 14:42 | 43.84604 | -50.20521 | 38465 ft | 433 kts | 228° |
| 2026-05-06 14:42 | 43.80301 | -50.26228 | 38457 ft | 430 kts | 228° |
| 2026-05-06 14:43 | 43.75985 | -50.31942 | 38460 ft | 429 kts | 229° |
| 2026-05-06 14:43 | 43.71679 | -50.37630 | 38455 ft | 427 kts | 229° |
| 2026-05-06 14:44 | 43.67386 | -50.43290 | 38455 ft | 426 kts | 229° |
| 2026-05-06 14:45 | 43.60944 | -50.51759 | 38458 ft | 426 kts | 229° |
| 2026-05-06 14:45 | 43.56646 | -50.57396 | 38456 ft | 427 kts | 229° |
| 2026-05-06 14:46 | 43.52341 | -50.63029 | 38468 ft | 425 kts | 229° |
| 2026-05-06 14:46 | 43.48065 | -50.68614 | 38474 ft | 422 kts | 229° |
| 2026-05-06 14:47 | 43.43802 | -50.74170 | 38473 ft | 422 kts | 229° |